Time;durP1;ratioP1;P1;durP2;ratioP2;P2;SDS_P1;SDS_P2;PMS_P1;PMS_P2;Temp;Humidity;BMP_temperature;BMP_pressure;BME280_temperature;BME280_humidity;BME280_pressure;Samples;Min_cycle;Max_cycle;Signal;HPM_P1;HPM_P2
2022/05/17 00:00:20;;;;;;;27.90;24.97;;;18.10;99.90;;;;;;5112673;28;20435;-75
2022/05/17 00:02:48;;;;;;;28.07;25.37;;;18.10;99.90;;;;;;5112496;28;20520;-75
2022/05/17 00:05:16;;;;;;;28.13;25.33;;;18.10;99.90;;;;;;5113775;28;20459;-75
2022/05/17 00:07:45;;;;;;;27.40;24.70;;;18.10;99.90;;;;;;5113812;28;20432;-75
2022/05/17 00:10:17;;;;;;;29.50;26.77;;;18.10;99.90;;;;;;5114399;28;20443;-75
2022/05/17 00:12:45;;;;;;;30.17;27.27;;;18.00;99.90;;;;;;5114026;28;20479;-75
2022/05/17 00:15:13;;;;;;;28.77;26.17;;;18.00;99.90;;;;;;5112476;28;20439;-75
2022/05/17 00:17:43;;;;;;;27.10;24.60;;;18.00;99.90;;;;;;5114048;28;20414;-75
2022/05/17 00:20:12;;;;;;;28.93;26.23;;;18.00;99.90;;;;;;5113632;28;20492;-75
2022/05/17 00:22:41;;;;;;;27.77;25.07;;;18.00;99.90;;;;;;5113885;28;20451;-75
2022/05/17 00:25:11;;;;;;;29.33;26.70;;;18.00;99.90;;;;;;5112500;28;20474;-75
2022/05/17 00:27:41;;;;;;;28.07;25.47;;;18.00;99.90;;;;;;5113861;28;20398;-75
2022/05/17 00:30:11;;;;;;;29.10;26.40;;;18.00;99.90;;;;;;5113643;28;20522;-75
2022/05/17 00:32:39;;;;;;;27.30;24.70;;;18.00;99.90;;;;;;5113447;28;20892;-75
2022/05/17 00:35:08;;;;;;;31.23;26.77;;;18.00;99.90;;;;;;5113683;28;20524;-74
2022/05/17 00:37:36;;;;;;;29.70;26.60;;;17.90;99.90;;;;;;5113470;28;20435;-75
2022/05/17 00:40:07;;;;;;;28.47;25.70;;;17.90;99.90;;;;;;5112156;28;20425;-75
2022/05/17 00:42:35;;;;;;;29.00;26.20;;;17.90;99.90;;;;;;5113428;28;20471;-74
2022/05/17 00:45:04;;;;;;;29.50;26.10;;;17.90;99.90;;;;;;5112119;28;20488;-75
2022/05/17 00:47:37;;;;;;;29.87;26.80;;;17.90;99.90;;;;;;5113525;28;20798;-75
2022/05/17 00:50:08;;;;;;;28.90;26.10;;;17.90;99.90;;;;;;5112346;28;20835;-74
2022/05/17 00:52:42;;;;;;;30.03;27.10;;;17.80;99.90;;;;;;5113615;28;20426;-75
2022/05/17 00:55:17;;;;;;;29.00;26.10;;;17.80;99.90;;;;;;5112167;28;20418;-75
2022/05/17 00:57:55;;;;;;;28.93;26.13;;;17.80;99.90;;;;;;5113901;28;20396;-75
2022/05/17 01:00:27;;;;;;;29.10;26.13;;;17.80;99.90;;;;;;5113829;28;20794;-75
2022/05/17 01:03:01;;;;;;;28.83;26.10;;;17.70;99.90;;;;;;5114121;28;20946;-75
2022/05/17 01:05:32;;;;;;;30.17;26.37;;;17.70;99.90;;;;;;5117371;28;20458;-75
2022/05/17 01:08:02;;;;;;;29.50;26.60;;;17.70;99.90;;;;;;5117144;28;20481;-75
2022/05/17 01:10:31;;;;;;;30.00;27.17;;;17.70;99.90;;;;;;5115954;28;20447;-75
2022/05/17 01:15:47;;;;;;;28.70;25.70;;;17.60;99.90;;;;;;5115721;28;20417;-75
2022/05/17 01:18:16;;;;;;;28.97;26.37;;;17.60;99.90;;;;;;5115734;28;20435;-75
2022/05/17 01:20:44;;;;;;;28.60;25.80;;;17.60;99.90;;;;;;5115533;28;20443;-75
2022/05/17 01:23:14;;;;;;;29.93;26.83;;;17.60;99.90;;;;;;5116042;28;20421;-75
2022/05/17 01:25:44;;;;;;;29.37;26.00;;;17.60;99.90;;;;;;5116662;28;20463;-75
2022/05/17 01:28:16;;;;;;;29.37;26.43;;;17.50;99.90;;;;;;5116684;28;20414;-74
2022/05/17 01:30:44;;;;;;;30.17;27.17;;;17.50;99.90;;;;;;5116930;28;20405;-75
2022/05/17 01:33:17;;;;;;;29.23;26.30;;;17.50;99.90;;;;;;5115317;28;20463;-75
2022/05/17 01:35:45;;;;;;;30.20;27.40;;;17.50;99.90;;;;;;5115307;28;20460;-75
2022/05/17 01:38:15;;;;;;;29.80;26.80;;;17.40;99.90;;;;;;5115229;28;20439;-75
2022/05/17 01:40:43;;;;;;;29.93;26.70;;;17.40;99.90;;;;;;5115412;28;21007;-74
2022/05/17 01:43:12;;;;;;;31.80;26.40;;;17.40;99.90;;;;;;5115465;28;20430;-75
2022/05/17 01:45:40;;;;;;;29.93;26.93;;;17.40;99.90;;;;;;5115045;28;21048;-75
2022/05/17 01:48:08;;;;;;;30.43;25.97;;;17.40;99.90;;;;;;5115300;28;20496;-75
2022/05/17 01:50:37;;;;;;;31.43;28.40;;;17.40;99.90;;;;;;5116427;27;20986;-75
2022/05/17 01:53:05;;;;;;;29.67;26.83;;;17.40;99.90;;;;;;5114965;28;20418;-75
2022/05/17 01:55:34;;;;;;;29.67;26.60;;;17.30;99.90;;;;;;5116200;28;20924;-75
2022/05/17 01:58:03;;;;;;;30.10;26.90;;;17.30;99.90;;;;;;5116183;28;20781;-75
2022/05/17 02:00:31;;;;;;;29.40;26.67;;;17.30;99.90;;;;;;5115941;28;20492;-75
2022/05/17 02:03:00;;;;;;;29.57;26.70;;;17.30;99.90;;;;;;5115992;28;20459;-75
2022/05/17 02:05:28;;;;;;;31.67;28.60;;;17.20;99.90;;;;;;5116065;28;20413;-75
2022/05/17 02:07:56;;;;;;;31.43;28.03;;;17.20;99.90;;;;;;5116195;28;20450;-75
2022/05/17 02:10:25;;;;;;;31.00;27.73;;;17.20;99.90;;;;;;5116163;28;20468;-75
2022/05/17 02:12:58;;;;;;;29.70;26.53;;;17.20;99.90;;;;;;5114579;28;20428;-75
2022/05/17 02:15:27;;;;;;;30.77;27.50;;;17.20;99.90;;;;;;5113964;28;20474;-75
2022/05/17 02:17:56;;;;;;;29.50;26.70;;;17.20;99.90;;;;;;5114484;28;20931;-74
2022/05/17 02:20:25;;;;;;;32.37;29.20;;;17.10;99.90;;;;;;5114471;28;20470;-74
2022/05/17 02:22:56;;;;;;;30.30;27.57;;;17.10;99.90;;;;;;5115983;27;20398;-75
2022/05/17 02:25:24;;;;;;;34.73;29.27;;;17.10;99.90;;;;;;5114306;28;20455;-74
2022/05/17 02:27:52;;;;;;;31.13;28.30;;;17.10;99.90;;;;;;5114220;28;20420;-75
2022/05/17 02:30:22;;;;;;;31.27;27.47;;;17.00;99.90;;;;;;5114161;28;20977;-75
2022/05/17 02:32:50;;;;;;;30.30;27.27;;;17.00;99.90;;;;;;5115766;28;20497;-74
2022/05/17 02:35:18;;;;;;;30.13;27.13;;;17.00;99.90;;;;;;5115476;27;20514;-75
2022/05/17 02:37:47;;;;;;;30.43;27.40;;;17.00;99.90;;;;;;5114156;28;20467;-75
2022/05/17 02:40:15;;;;;;;33.27;29.77;;;17.00;99.90;;;;;;5113958;28;20451;-75
2022/05/17 02:42:43;;;;;;;30.50;27.53;;;16.90;99.90;;;;;;5115535;28;20800;-74
2022/05/17 02:45:12;;;;;;;33.27;29.93;;;16.90;99.90;;;;;;5115156;28;20484;-75
2022/05/17 02:47:41;;;;;;;31.37;28.17;;;16.90;99.90;;;;;;5115073;28;20460;-75
2022/05/17 02:50:11;;;;;;;31.90;28.60;;;16.80;99.90;;;;;;5115277;28;21035;-74
2022/05/17 02:52:39;;;;;;;32.43;29.17;;;16.80;99.90;;;;;;5113667;28;20479;-75
2022/05/17 02:55:08;;;;;;;30.43;27.27;;;16.80;99.90;;;;;;5115159;28;20456;-75
2022/05/17 02:57:38;;;;;;;33.57;29.97;;;16.80;99.90;;;;;;5115260;28;20434;-75
2022/05/17 03:00:09;;;;;;;32.47;29.13;;;16.80;99.90;;;;;;5113618;28;20444;-75
2022/05/17 03:02:38;;;;;;;33.37;28.93;;;16.70;99.90;;;;;;5113509;28;20536;-75
2022/05/17 03:05:09;;;;;;;36.30;31.47;;;16.70;99.90;;;;;;5113539;28;20505;-75
2022/05/17 03:07:38;;;;;;;31.83;28.73;;;16.70;99.90;;;;;;5114064;28;20491;-75
2022/05/17 03:10:08;;;;;;;32.40;28.90;;;16.70;99.90;;;;;;5113673;28;20520;-75
2022/05/17 03:12:36;;;;;;;32.43;29.03;;;16.60;99.90;;;;;;5113254;28;20446;-74
2022/05/17 03:15:05;;;;;;;33.07;29.67;;;16.70;99.90;;;;;;5113308;28;20448;-74
2022/05/17 03:17:33;;;;;;;33.10;29.60;;;16.60;99.90;;;;;;5114544;28;20969;-75
2022/05/17 03:20:01;;;;;;;32.37;28.97;;;16.60;99.90;;;;;;5113282;28;20424;-75
2022/05/17 03:22:31;;;;;;;32.13;29.07;;;16.60;99.90;;;;;;5113218;28;20830;-75
2022/05/17 03:24:59;;;;;;;30.10;27.03;;;16.60;99.90;;;;;;5113169;28;20854;-75
2022/05/17 03:27:47;;;;;;;27.00;24.47;;;16.60;99.90;;;;;;5112957;28;20467;-75
2022/05/17 03:30:15;;;;;;;31.10;28.00;;;16.60;99.90;;;;;;5113140;28;20538;-75
2022/05/17 03:32:43;;;;;;;27.73;24.83;;;16.60;99.90;;;;;;5113003;28;20467;-75
2022/05/17 03:35:12;;;;;;;31.13;28.07;;;16.50;99.90;;;;;;5114468;28;20780;-75
2022/05/17 03:37:41;;;;;;;29.03;26.17;;;16.50;99.90;;;;;;5114286;28;20431;-75
2022/05/17 03:40:12;;;;;;;28.67;25.53;;;16.50;99.90;;;;;;5113179;28;20451;-75
2022/05/17 03:42:41;;;;;;;28.13;25.33;;;16.50;99.90;;;;;;5112903;28;21016;-75
2022/05/17 03:45:11;;;;;;;30.03;27.00;;;16.50;99.90;;;;;;5114038;28;20922;-75
2022/05/17 03:47:41;;;;;;;27.57;24.83;;;16.50;99.90;;;;;;5112885;28;20512;-75
2022/05/17 03:50:11;;;;;;;29.73;26.57;;;16.50;99.90;;;;;;5114388;28;20547;-75
2022/05/17 03:52:40;;;;;;;28.63;25.83;;;16.50;99.90;;;;;;5113949;28;20495;-75
2022/05/17 03:55:09;;;;;;;27.20;24.60;;;16.50;99.90;;;;;;5113020;28;20445;-74
2022/05/17 03:57:37;;;;;;;27.70;25.20;;;16.50;99.90;;;;;;5112644;28;20428;-75
2022/05/17 04:00:08;;;;;;;28.93;24.37;;;16.50;99.90;;;;;;5114607;28;20432;-75
2022/05/17 04:02:44;;;;;;;27.93;25.13;;;16.50;99.90;;;;;;5112610;28;20467;-75
2022/05/17 04:05:13;;;;;;;28.17;25.30;;;16.40;99.90;;;;;;5112601;28;20850;-75
2022/05/17 04:07:42;;;;;;;28.00;25.20;;;16.40;99.90;;;;;;5114109;28;20467;-75
2022/05/17 04:10:15;;;;;;;26.90;24.17;;;16.40;99.90;;;;;;5112593;28;20446;-75
2022/05/17 04:12:43;;;;;;;28.13;25.20;;;16.40;99.90;;;;;;5113845;28;20452;-75
2022/05/17 04:15:15;;;;;;;27.00;24.10;;;16.40;99.90;;;;;;5112625;28;20476;-75
2022/05/17 04:17:44;;;;;;;26.53;23.90;;;16.40;99.90;;;;;;5113815;28;20382;-75
2022/05/17 04:20:16;;;;;;;29.30;26.37;;;16.40;99.90;;;;;;5112526;28;20426;-75
2022/05/17 04:22:48;;;;;;;28.30;24.37;;;16.40;99.90;;;;;;5112445;28;21030;-75
2022/05/17 04:25:19;;;;;;;27.80;23.60;;;16.40;99.90;;;;;;5113665;28;20410;-75
2022/05/17 04:27:49;;;;;;;26.13;23.40;;;16.40;99.90;;;;;;5113902;28;20826;-75
2022/05/17 04:30:18;;;;;;;29.40;24.60;;;16.40;99.90;;;;;;5112314;28;20481;-75
2022/05/17 04:32:47;;;;;;;27.03;24.23;;;16.40;99.90;;;;;;5112403;28;20462;-75
2022/05/17 04:35:16;;;;;;;26.70;23.77;;;16.40;99.90;;;;;;5113576;28;20413;-75
2022/05/17 04:37:51;;;;;;;27.37;24.63;;;16.40;99.90;;;;;;5114210;28;20410;-75
2022/05/17 04:40:20;;;;;;;25.20;22.60;;;16.30;99.90;;;;;;5116454;28;20443;-75
2022/05/17 04:42:50;;;;;;;26.77;24.17;;;16.40;99.90;;;;;;5116197;28;20440;-75
2022/05/17 04:45:18;;;;;;;25.13;22.60;;;16.40;99.90;;;;;;5117517;28;20435;-75
2022/05/17 04:47:47;;;;;;;24.90;22.60;;;16.40;99.90;;;;;;5116069;28;20996;-75
2022/05/17 04:50:17;;;;;;;25.27;22.97;;;16.40;99.90;;;;;;5117384;28;20463;-75
2022/05/17 04:52:47;;;;;;;26.50;23.77;;;16.30;99.90;;;;;;5117422;28;20432;-75
2022/05/17 04:55:18;;;;;;;25.77;23.30;;;16.40;99.90;;;;;;5116307;28;20856;-75
2022/05/17 04:57:48;;;;;;;26.10;23.70;;;16.30;99.90;;;;;;5117288;28;20426;-75
2022/05/17 05:00:19;;;;;;;23.80;21.60;;;16.30;99.90;;;;;;5115991;28;20449;-75
2022/05/17 05:02:48;;;;;;;26.00;23.50;;;16.30;99.90;;;;;;5116073;28;21095;-75
2022/05/17 05:05:17;;;;;;;26.23;23.83;;;16.30;99.90;;;;;;5115888;28;20442;-75
2022/05/17 05:07:46;;;;;;;24.73;22.13;;;16.30;99.90;;;;;;5115688;28;20463;-75
2022/05/17 05:10:16;;;;;;;25.40;22.87;;;16.40;99.90;;;;;;5117335;28;20439;-75
2022/05/17 05:12:44;;;;;;;25.40;22.73;;;16.40;99.90;;;;;;5115852;28;20445;-75
2022/05/17 05:15:14;;;;;;;27.53;24.40;;;16.40;99.90;;;;;;5115733;28;20450;-75
2022/05/17 05:17:43;;;;;;;25.10;22.67;;;16.40;99.90;;;;;;5117209;27;20456;-74
2022/05/17 05:20:15;;;;;;;25.23;22.60;;;16.40;99.90;;;;;;5115626;28;20402;-74
2022/05/17 05:22:43;;;;;;;26.30;23.60;;;16.40;99.90;;;;;;5116911;28;20430;-74
2022/05/17 05:25:13;;;;;;;24.57;22.17;;;16.40;99.90;;;;;;5115868;28;20447;-75
2022/05/17 05:27:42;;;;;;;24.40;22.10;;;16.50;99.90;;;;;;5115399;28;20464;-75
2022/05/17 05:30:13;;;;;;;24.07;21.50;;;16.50;99.90;;;;;;5115660;28;20928;-75
2022/05/17 05:32:41;;;;;;;26.40;23.77;;;16.50;99.90;;;;;;5117185;28;20530;-75
2022/05/17 05:35:10;;;;;;;23.87;21.20;;;16.60;99.90;;;;;;5115293;28;20956;-75
2022/05/17 05:37:38;;;;;;;26.80;24.17;;;16.60;99.90;;;;;;5115453;28;20410;-75
2022/05/17 05:40:09;;;;;;;24.53;22.23;;;16.70;99.90;;;;;;5115203;28;20432;-75
2022/05/17 05:42:38;;;;;;;27.43;21.07;;;16.80;99.90;;;;;;5116474;28;20433;-75
2022/05/17 05:45:10;;;;;;;23.97;21.73;;;16.90;99.90;;;;;;5116444;28;20423;-75
2022/05/17 05:47:40;;;;;;;22.97;20.77;;;17.10;99.90;;;;;;5114989;28;20510;-75
2022/05/17 05:50:09;;;;;;;21.87;19.63;;;17.30;99.90;;;;;;5113789;28;20414;-75
2022/05/17 05:52:37;;;;;;;22.00;18.40;;;17.40;99.90;;;;;;5116075;28;20985;-75
2022/05/17 05:55:07;;;;;;;20.87;18.87;;;17.60;99.90;;;;;;5116503;28;20447;-75
2022/05/17 05:57:35;;;;;;;19.40;17.37;;;17.80;99.90;;;;;;5114902;28;20452;-75
2022/05/17 06:00:06;;;;;;;21.00;19.00;;;17.80;99.90;;;;;;5116416;28;20427;-75
2022/05/17 06:02:40;;;;;;;20.60;18.47;;;18.00;99.90;;;;;;5116233;28;20451;-75
2022/05/17 06:05:08;;;;;;;19.90;17.90;;;18.00;99.90;;;;;;5114702;28;20439;-75
2022/05/17 06:07:37;;;;;;;20.57;17.70;;;18.10;99.90;;;;;;5114555;28;20451;-75
2022/05/17 06:10:07;;;;;;;19.80;17.90;;;18.30;99.90;;;;;;5114640;28;20534;-75
2022/05/17 06:12:35;;;;;;;18.60;16.60;;;18.60;99.90;;;;;;5114489;28;20463;-75
2022/05/17 06:15:04;;;;;;;19.03;16.67;;;18.80;99.90;;;;;;5116184;28;20438;-75
2022/05/17 06:17:33;;;;;;;18.07;16.07;;;19.00;99.90;;;;;;5116023;28;20527;-75
2022/05/17 06:20:04;;;;;;;21.80;16.03;;;19.20;99.90;;;;;;5116049;28;20516;-75
2022/05/17 06:22:32;;;;;;;16.30;14.60;;;19.40;99.90;;;;;;5115697;28;20948;-75
2022/05/17 06:25:00;;;;;;;16.57;14.80;;;19.60;99.90;;;;;;5115844;28;20432;-76
2022/05/17 06:27:28;;;;;;;15.63;14.00;;;19.80;99.90;;;;;;5114477;28;20454;-75
2022/05/17 06:29:57;;;;;;;15.90;14.00;;;20.00;99.90;;;;;;5114205;28;20475;-75
2022/05/17 06:32:25;;;;;;;14.33;12.87;;;20.20;99.90;;;;;;5114102;28;20854;-75
2022/05/17 06:34:53;;;;;;;14.53;11.90;;;20.40;99.90;;;;;;5114680;28;20534;-75
2022/05/17 06:37:22;;;;;;;16.00;13.53;;;20.50;99.90;;;;;;5115960;28;20431;-75
2022/05/17 06:39:51;;;;;;;16.43;13.03;;;20.60;99.90;;;;;;5114043;28;20435;-75
2022/05/17 06:42:19;;;;;;;14.30;12.90;;;20.70;99.90;;;;;;5115187;28;20459;-75
2022/05/17 06:44:47;;;;;;;13.17;10.97;;;20.80;99.90;;;;;;5114202;28;20454;-75
2022/05/17 06:47:16;;;;;;;16.00;10.07;;;21.00;99.90;;;;;;5113801;28;20450;-75
2022/05/17 06:49:44;;;;;;;11.90;10.03;;;21.00;99.90;;;;;;5114879;28;20805;-75
2022/05/17 06:52:12;;;;;;;17.00;10.87;;;20.90;99.90;;;;;;5115484;28;20546;-75
2022/05/17 06:54:44;;;;;;;13.50;9.97;;;20.90;99.90;;;;;;5114280;28;20439;-75
2022/05/17 06:57:15;;;;;;;10.40;9.40;;;21.10;99.90;;;;;;5115214;28;20519;-75
2022/05/17 06:59:45;;;;;;;10.47;8.83;;;21.20;99.90;;;;;;5113295;28;20479;-75
2022/05/17 07:02:14;;;;;;;13.80;8.80;;;21.40;99.90;;;;;;5115387;28;20455;-75
2022/05/17 07:04:43;;;;;;;11.53;9.30;;;21.50;99.90;;;;;;5114912;28;20471;-76
2022/05/17 07:07:11;;;;;;;13.43;9.00;;;21.70;99.90;;;;;;5113559;28;20439;-76
2022/05/17 07:09:39;;;;;;;11.00;8.57;;;21.90;99.90;;;;;;5113511;28;20469;-75
2022/05/17 07:14:56;;;;;;;12.97;9.67;;;22.20;99.90;;;;;;5113431;28;20443;-76
2022/05/17 07:17:26;;;;;;;15.17;9.63;;;22.30;99.90;;;;;;5113628;28;20439;-75
2022/05/17 07:19:54;;;;;;;12.87;9.43;;;22.40;99.90;;;;;;5113476;28;20802;-75
2022/05/17 07:22:22;;;;;;;13.97;9.60;;;22.60;99.90;;;;;;5113165;28;20964;-75
2022/05/17 07:24:50;;;;;;;13.60;11.23;;;22.60;99.90;;;;;;5113182;28;20512;-76
2022/05/17 07:27:20;;;;;;;10.47;9.47;;;22.70;99.90;;;;;;5113256;28;20534;-76
2022/05/17 07:29:48;;;;;;;15.57;8.30;;;22.70;99.90;;;;;;5114270;28;20469;-76
2022/05/17 07:32:17;;;;;;;9.97;8.57;;;22.80;99.90;;;;;;5113018;28;20995;-75
2022/05/17 07:34:47;;;;;;;11.90;8.80;;;22.90;99.90;;;;;;5113045;28;20447;-76
2022/05/17 07:37:16;;;;;;;12.27;9.97;;;23.00;99.90;;;;;;5114674;28;20416;-76
2022/05/17 07:39:44;;;;;;;12.60;10.10;;;23.10;99.90;;;;;;5113304;28;20449;-76
2022/05/17 07:42:12;;;;;;;10.33;8.70;;;23.30;99.90;;;;;;5113254;28;20486;-76
2022/05/17 07:44:42;;;;;;;10.47;8.77;;;23.50;99.90;;;;;;5112917;28;20451;-76
2022/05/17 07:47:16;;;;;;;10.77;7.97;;;23.50;99.90;;;;;;5114203;28;20427;-76
2022/05/17 07:49:44;;;;;;;13.00;9.30;;;23.60;99.90;;;;;;5114306;28;20546;-76
2022/05/17 07:52:12;;;;;;;13.93;8.70;;;23.60;99.90;;;;;;5114117;28;20458;-76
2022/05/17 07:54:41;;;;;;;10.53;8.40;;;23.50;99.90;;;;;;5114621;28;20439;-76
2022/05/17 07:57:09;;;;;;;9.93;8.57;;;23.60;99.90;;;;;;5113921;28;20435;-76
2022/05/17 07:59:37;;;;;;;11.43;9.07;;;23.60;99.90;;;;;;5112727;28;20448;-76
2022/05/17 08:02:07;;;;;;;11.97;8.50;;;23.70;99.90;;;;;;5112677;28;20566;-76
2022/05/17 08:04:36;;;;;;;14.87;10.27;;;23.90;99.90;;;;;;5112980;28;20451;-76
2022/05/17 08:07:05;;;;;;;12.17;10.40;;;24.00;99.90;;;;;;5113872;28;20447;-76
2022/05/17 08:09:35;;;;;;;12.40;9.60;;;24.10;99.90;;;;;;5112444;28;20467;-76
2022/05/17 08:12:04;;;;;;;14.70;10.43;;;24.20;99.90;;;;;;5111788;28;20877;-76
2022/05/17 08:14:32;;;;;;;13.83;11.70;;;24.30;99.90;;;;;;5114242;28;20439;-76
2022/05/17 08:17:00;;;;;;;11.80;10.67;;;24.40;99.90;;;;;;5112523;28;20443;-76
2022/05/17 08:19:30;;;;;;;14.87;10.93;;;24.40;99.90;;;;;;5114314;28;20489;-76
2022/05/17 08:21:58;;;;;;;12.97;10.50;;;24.40;99.80;;;;;;5112401;28;20566;-76
2022/05/17 08:24:27;;;;;;;12.60;11.30;;;24.30;99.70;;;;;;5114111;28;20443;-76
2022/05/17 08:29:41;;;;;;;15.47;12.13;;;24.30;99.70;;;;;;5112372;28;20512;-76
2022/05/17 08:34:56;;;;;;;14.03;11.40;;;24.50;99.60;;;;;;5113723;28;20796;-76
2022/05/17 08:37:24;;;;;;;13.97;11.77;;;24.50;99.60;;;;;;5112785;28;20443;-76
2022/05/17 08:39:52;;;;;;;12.87;10.53;;;24.50;99.40;;;;;;5113689;28;20447;-76
2022/05/17 08:42:26;;;;;;;12.00;10.80;;;24.50;99.40;;;;;;5113784;28;20515;-76
2022/05/17 08:45:06;;;;;;;14.53;12.37;;;24.50;99.30;;;;;;5112653;28;20475;-76
2022/05/17 08:47:44;;;;;;;14.53;12.83;;;24.60;99.20;;;;;;5112724;28;20439;-76
2022/05/17 08:50:33;;;;;;;14.40;10.77;;;24.50;99.00;;;;;;5112179;28;20516;-75
2022/05/17 08:53:02;;;;;;;12.47;11.30;;;24.30;98.80;;;;;;5113719;28;20900;-76
2022/05/17 08:55:34;;;;;;;12.37;11.07;;;24.20;98.70;;;;;;5113810;28;20453;-76
2022/05/17 08:58:07;;;;;;;12.97;11.53;;;24.30;98.80;;;;;;5112143;28;20842;-76
2022/05/17 09:00:40;;;;;;;12.00;10.90;;;24.40;98.90;;;;;;5112134;28;20526;-75
2022/05/17 09:03:23;;;;;;;12.90;10.60;;;24.60;98.80;;;;;;5112116;28;20446;-74
2022/05/17 09:06:01;;;;;;;11.03;9.90;;;24.70;98.40;;;;;;5113524;28;20428;-75
2022/05/17 09:08:37;;;;;;;11.33;9.60;;;24.80;98.50;;;;;;5113583;28;20415;-76
2022/05/17 09:11:15;;;;;;;9.90;9.00;;;24.90;98.40;;;;;;5112170;28;20504;-76
2022/05/17 09:13:48;;;;;;;13.30;10.37;;;25.00;98.40;;;;;;5111975;28;20439;-76
2022/05/17 09:16:38;;;;;;;13.77;9.67;;;25.10;98.20;;;;;;5111963;28;20435;-75
2022/05/17 09:19:07;;;;;;;11.37;9.90;;;25.10;98.00;;;;;;5111982;28;20539;-76
2022/05/17 09:21:38;;;;;;;11.73;10.70;;;25.10;97.90;;;;;;5111818;28;20991;-75
2022/05/17 09:24:12;;;;;;;10.60;9.20;;;25.10;97.80;;;;;;5115696;28;20916;-75
2022/05/17 09:26:41;;;;;;;10.30;9.40;;;25.20;97.80;;;;;;5116084;28;20862;-75
2022/05/17 09:29:17;;;;;;;13.40;8.77;;;25.30;97.70;;;;;;5115927;28;20447;-75
2022/05/17 09:31:52;;;;;;;10.93;9.80;;;25.40;97.60;;;;;;5117112;28;20496;-74
2022/05/17 09:34:29;;;;;;;10.27;9.00;;;25.50;97.50;;;;;;5115716;28;20846;-75
2022/05/17 09:37:07;;;;;;;10.60;8.63;;;25.60;97.50;;;;;;5115598;28;20475;-75
2022/05/17 09:39:35;;;;;;;12.30;8.20;;;25.60;97.50;;;;;;5115549;28;20983;-75
2022/05/17 09:42:05;;;;;;;11.33;8.20;;;25.80;97.40;;;;;;5115487;28;20481;-75
2022/05/17 09:44:43;;;;;;;10.27;9.20;;;25.70;97.20;;;;;;5117890;28;20477;-76
2022/05/17 09:47:28;;;;;;;9.37;8.37;;;25.70;97.00;;;;;;5116170;28;20539;-75
2022/05/17 09:53:03;;;;;;;11.17;8.10;;;25.60;96.90;;;;;;5059355;28;20497;-75
2022/05/17 09:55:33;;;;;;;9.90;8.30;;;25.60;96.60;;;;;;5115322;28;20538;-75
2022/05/17 09:58:04;;;;;;;8.93;8.03;;;25.60;96.50;;;;;;5115400;28;20432;-74
2022/05/17 10:00:41;;;;;;;8.93;7.73;;;25.60;96.50;;;;;;5116744;28;20445;-74
2022/05/17 10:03:29;;;;;;;8.80;7.90;;;25.60;96.40;;;;;;5116816;28;20426;-74
2022/05/17 10:05:59;;;;;;;10.40;9.03;;;25.50;96.30;;;;;;5116671;28;20412;-75
2022/05/17 10:08:58;;;;;;;10.30;7.70;;;25.50;96.60;;;;;;5116319;28;20957;-74
2022/05/17 10:11:28;;;;;;;9.20;7.70;;;25.50;96.20;;;;;;5114994;28;20481;-74
2022/05/17 10:14:07;;;;;;;12.50;7.63;;;25.50;96.20;;;;;;5114843;28;20465;-75
2022/05/17 10:16:40;;;;;;;8.27;7.40;;;25.40;96.00;;;;;;5116675;28;20915;-75
2022/05/17 10:19:17;;;;;;;9.10;6.80;;;25.30;96.00;;;;;;5116072;28;20776;-75
2022/05/17 10:21:50;;;;;;;11.60;8.03;;;25.20;96.00;;;;;;5115112;28;20490;-75
2022/05/17 10:24:27;;;;;;;9.37;6.90;;;25.20;95.90;;;;;;5114962;28;20445;-75
2022/05/17 10:27:03;;;;;;;7.17;6.60;;;25.10;95.70;;;;;;5116286;28;20455;-75
2022/05/17 10:29:38;;;;;;;7.87;6.90;;;25.10;95.60;;;;;;5115880;28;20518;-75
2022/05/17 10:32:12;;;;;;;11.10;7.90;;;25.00;95.70;;;;;;5114503;28;20459;-75
2022/05/17 10:35:03;;;;;;;10.80;7.70;;;25.00;95.60;;;;;;5115785;28;20442;-75
2022/05/17 10:37:36;;;;;;;9.13;6.73;;;25.10;95.60;;;;;;5114443;28;20496;-75
2022/05/17 10:40:09;;;;;;;10.07;8.90;;;25.20;95.70;;;;;;5115878;28;20443;-74
2022/05/17 10:42:39;;;;;;;11.07;7.70;;;25.30;95.70;;;;;;5115726;28;20508;-75
2022/05/17 10:45:10;;;;;;;10.20;7.87;;;25.40;95.60;;;;;;5114380;28;20542;-75
2022/05/17 10:47:48;;;;;;;8.20;6.50;;;25.60;95.50;;;;;;5116081;28;20415;-75
2022/05/17 10:50:25;;;;;;;8.00;7.20;;;25.60;95.50;;;;;;5115127;28;20467;-75
2022/05/17 10:53:04;;;;;;;6.67;6.07;;;25.60;95.30;;;;;;5114675;28;20470;-75
2022/05/17 10:55:45;;;;;;;8.83;7.47;;;25.70;95.10;;;;;;5115373;27;20446;-75
2022/05/17 10:58:28;;;;;;;9.90;6.47;;;25.70;95.00;;;;;;5113743;28;20440;-75
2022/05/17 11:01:03;;;;;;;10.93;6.20;;;25.80;95.10;;;;;;5113660;28;20486;-75
2022/05/17 11:03:58;;;;;;;7.40;6.10;;;25.70;94.90;;;;;;5113633;28;20854;-75
2022/05/17 11:06:32;;;;;;;8.00;6.63;;;25.70;94.80;;;;;;5115309;28;20936;-75
2022/05/17 11:09:08;;;;;;;10.40;8.40;;;25.70;94.90;;;;;;5113504;28;20445;-75
2022/05/17 11:12:00;;;;;;;7.77;6.37;;;25.70;94.90;;;;;;5113541;28;20478;-75
2022/05/17 11:14:34;;;;;;;8.50;7.70;;;25.90;94.70;;;;;;5111531;28;20439;-75
2022/05/17 11:17:08;;;;;;;6.83;5.63;;;26.00;94.70;;;;;;5114586;28;20426;-75
2022/05/17 11:19:42;;;;;;;8.70;6.60;;;26.00;94.70;;;;;;5114580;28;20423;-75
2022/05/17 11:22:20;;;;;;;6.73;6.00;;;25.90;94.40;;;;;;5113203;28;21075;-75
2022/05/17 11:25:36;;;;;;;7.60;5.90;;;25.90;94.40;;;;;;5113194;28;20538;-75
2022/05/17 11:28:44;;;;;;;7.97;5.80;;;25.90;94.00;;;;;;5097408;28;20447;-75
2022/05/17 11:31:17;;;;;;;8.80;5.53;;;25.90;94.00;;;;;;5058990;28;20861;-75
2022/05/17 11:33:49;;;;;;;7.27;5.47;;;25.90;93.90;;;;;;5113062;28;20431;-75
2022/05/17 11:36:42;;;;;;;7.77;6.10;;;26.00;93.80;;;;;;5112983;28;20482;-75
2022/05/17 11:39:46;;;;;;;7.30;5.60;;;26.00;93.60;;;;;;5112990;28;20458;-75
2022/05/17 11:42:28;;;;;;;7.10;5.03;;;25.90;93.50;;;;;;5112887;28;20455;-75
2022/05/17 11:45:19;;;;;;;5.03;4.53;;;25.80;93.30;;;;;;5114197;28;20961;-75
2022/05/17 11:47:54;;;;;;;8.20;5.00;;;25.90;93.10;;;;;;5113629;28;20411;-75
2022/05/17 11:50:43;;;;;;;6.40;5.30;;;25.90;93.20;;;;;;5114464;28;20411;-76
2022/05/17 11:53:46;;;;;;;6.23;4.90;;;26.00;93.20;;;;;;5114602;28;20437;-76
2022/05/17 11:56:33;;;;;;;5.63;5.03;;;26.00;93.10;;;;;;5070668;28;20530;-76
2022/05/17 11:59:23;;;;;;;8.03;6.00;;;26.10;93.00;;;;;;5114290;28;20497;-75
2022/05/17 12:02:06;;;;;;;6.57;5.00;;;26.10;92.80;;;;;;5113731;28;20543;-75
2022/05/17 12:04:43;;;;;;;5.50;5.00;;;26.10;92.40;;;;;;5114193;28;20432;-75
2022/05/17 12:07:27;;;;;;;6.50;4.57;;;26.00;92.30;;;;;;5112878;28;20446;-75
2022/05/17 12:09:57;;;;;;;5.80;4.17;;;25.90;91.90;;;;;;5113428;28;20443;-75
2022/05/17 12:12:48;;;;;;;5.90;3.90;;;25.90;91.90;;;;;;5112915;28;20479;-75
2022/05/17 12:15:35;;;;;;;7.73;4.50;;;25.90;91.60;;;;;;5114467;28;20839;-75
2022/05/17 12:18:29;;;;;;;6.93;3.93;;;25.90;91.50;;;;;;5114026;28;20430;-75
2022/05/17 12:21:29;;;;;;;5.10;3.60;;;25.80;91.80;;;;;;5100293;28;20468;-75
2022/05/17 12:24:06;;;;;;;10.20;3.77;;;25.80;91.50;;;;;;5113993;28;20788;-75
2022/05/17 12:26:55;;;;;;;6.80;3.93;;;25.80;91.60;;;;;;5113623;28;20427;-74
2022/05/17 12:32:11;;;;;;;4.20;2.67;;;25.80;91.10;;;;;;5112193;28;20535;-75
2022/05/17 12:34:42;;;;;;;6.10;2.90;;;25.70;90.70;;;;;;5113523;28;20427;-75
2022/05/17 12:37:12;;;;;;;5.73;2.90;;;25.70;90.60;;;;;;5112325;28;20940;-74
2022/05/17 12:45:16;;;;;;;4.27;3.10;;;25.70;90.50;;;;;;5112221;28;20488;-75
2022/05/17 12:47:51;;;;;;;7.07;3.50;;;25.70;90.50;;;;;;5112172;28;20436;-75
2022/05/17 12:50:24;;;;;;;5.00;3.80;;;25.70;90.30;;;;;;5113756;28;20895;-74
2022/05/17 12:52:54;;;;;;;4.93;3.37;;;25.80;90.10;;;;;;5112067;28;20475;-75
2022/05/17 12:55:25;;;;;;;5.37;3.50;;;25.90;90.10;;;;;;5112215;28;20506;-75
2022/05/17 12:57:53;;;;;;;6.60;3.77;;;26.00;89.90;;;;;;5114129;28;20453;-75
2022/05/17 13:00:28;;;;;;;8.17;3.77;;;26.00;89.90;;;;;;5115999;28;20454;-74
2022/05/17 13:02:58;;;;;;;7.37;3.47;;;26.10;89.90;;;;;;5116027;28;20446;-75
2022/05/17 13:05:31;;;;;;;6.63;4.80;;;26.20;90.00;;;;;;5117161;28;20889;-75
2022/05/17 13:08:01;;;;;;;8.23;4.30;;;26.20;90.20;;;;;;5115975;28;20549;-74
2022/05/17 13:10:30;;;;;;;6.30;4.37;;;26.30;90.30;;;;;;5115746;28;20492;-74
2022/05/17 13:12:59;;;;;;;6.00;4.63;;;26.30;90.30;;;;;;5116982;28;20475;-74
2022/05/17 13:15:29;;;;;;;5.53;3.57;;;26.30;90.40;;;;;;5115683;28;20522;-74
2022/05/17 13:17:58;;;;;;;4.00;3.13;;;26.30;90.40;;;;;;5115619;28;20431;-74
2022/05/17 13:20:30;;;;;;;5.50;3.10;;;26.20;90.40;;;;;;5117286;28;20431;-75